メインページ
METAR-TAF:

METAR-TAF

空港 :

メンドーサ, アルゼンチン

緯度: 32-50S, 経度: 068-47W, 海抜: 705m

現時点の気象観測

当レポートは31分前の17:00(UTC)に作成
南東の風 6kt
気温 14°C
湿度 28%
気圧 1015 hPa
視程10km以上
1,500メートル以下は雲なし、積乱雲なし

METAR: SAME 231700Z 14006KT CAVOK 14/M04 Q1015

時間: 14:31 (17:31 UTC)

予報

当レポートは6時間31分前の11:00(UTC)に作成
予報は23日の 12時(UTC)から 24日の 12時(UTC)まで有効
の風 15kt
視程10km以上
高度4000ftの雲は散在している
高度10000ftの雲は散在している

TAF: SAME 231100Z 2312/2412 18015KT 9999 SCT040 SCT100 TX17/2320Z TN02/2410Z

4,000以上の空港の気象観測と天気予報(METAR報とTAF報)

利用可能な観測所は地図上に黄色い丸と赤い丸で示す。

丸の上にカーソルを重ねると観測所名を参照できる。

次にクリックすると気象観測と天気予報を参照できる。

マップの切り替え:黒色「×」印の緑ボタンをクリックして拡大、「-」印の緑ボタンをクリックして縮小、緑色の三角印をクリックして隣りの地図に切り替え


METAR-TAF: